createdAt,value
2023-03-25T00:01:39.864Z,7.80
2023-03-25T00:04:07.832Z,7.90
2023-03-25T00:06:36.008Z,7.90
2023-03-25T00:09:05.455Z,7.90
2023-03-25T00:11:33.434Z,7.90
2023-03-25T00:14:01.512Z,7.80
2023-03-25T00:16:30.043Z,7.90
2023-03-25T00:19:00.147Z,7.90
2023-03-25T00:21:28.165Z,7.90
2023-03-25T00:23:56.920Z,7.80
2023-03-25T00:26:30.328Z,7.70
2023-03-25T00:28:58.487Z,7.70
2023-03-25T00:31:26.483Z,7.60
2023-03-25T00:33:55.042Z,7.60
2023-03-25T00:36:23.020Z,7.60
2023-03-25T00:38:51.248Z,7.70
2023-03-25T00:41:23.001Z,7.60
2023-03-25T00:43:54.135Z,7.60
2023-03-25T00:46:22.831Z,7.60
2023-03-25T00:48:52.602Z,7.50
2023-03-25T00:51:21.758Z,7.60
2023-03-25T00:53:52.289Z,7.70
2023-03-25T00:56:21.535Z,7.70
2023-03-25T00:58:49.651Z,7.80
2023-03-25T01:01:27.071Z,7.80
2023-03-25T01:04:00.544Z,7.80
2023-03-25T01:06:34.765Z,7.90
2023-03-25T01:09:06.128Z,7.90
2023-03-25T01:11:38.439Z,7.80
2023-03-25T01:14:08.727Z,7.90
2023-03-25T01:16:39.694Z,8.00
2023-03-25T01:19:08.481Z,8.00
2023-03-25T01:21:36.846Z,7.90
2023-03-25T01:24:05.246Z,8.00
2023-03-25T01:26:33.724Z,8.00
2023-03-25T01:29:01.987Z,8.20
2023-03-25T01:31:30.662Z,8.20
2023-03-25T01:34:00.834Z,8.30
2023-03-25T01:36:32.925Z,8.30
2023-03-25T01:39:05.976Z,8.20
2023-03-25T01:41:46.851Z,8.30
2023-03-25T01:44:56.606Z,8.30
2023-03-25T01:47:26.851Z,8.30
2023-03-25T01:49:56.652Z,8.40
2023-03-25T01:52:29.683Z,8.30
2023-03-25T01:55:00.589Z,8.30
2023-03-25T01:57:31.457Z,8.30
2023-03-25T01:59:59.588Z,8.40
2023-03-25T02:02:35.032Z,8.40
2023-03-25T02:05:10.804Z,8.40
2023-03-25T02:07:47.075Z,8.40
2023-03-25T02:10:16.268Z,8.30
2023-03-25T02:12:45.741Z,8.30
2023-03-25T02:15:16.068Z,8.30
2023-03-25T02:18:08.730Z,8.30
2023-03-25T02:21:09.734Z,8.30
2023-03-25T02:24:35.570Z,8.30
2023-03-25T02:27:27.679Z,8.40
2023-03-25T02:30:31.473Z,8.40
2023-03-25T02:33:32.011Z,8.40
2023-03-25T02:36:30.557Z,8.40
2023-03-25T02:39:04.053Z,8.40
2023-03-25T02:41:41.060Z,8.40
2023-03-25T02:44:14.025Z,8.40
2023-03-25T02:46:50.042Z,8.40
2023-03-25T02:49:22.482Z,8.40
2023-03-25T02:51:55.923Z,8.40
2023-03-25T02:54:27.206Z,8.40
2023-03-25T02:56:57.675Z,8.40
2023-03-25T02:59:33.552Z,8.50
2023-03-25T03:02:04.044Z,8.50
2023-03-25T03:04:32.048Z,8.40
2023-03-25T03:07:01.069Z,8.50
2023-03-25T03:09:46.535Z,8.50
2023-03-25T03:12:28.556Z,8.50
2023-03-25T03:15:06.869Z,8.40
2023-03-25T03:17:41.689Z,8.40
2023-03-25T03:20:19.129Z,8.40
2023-03-25T03:22:52.982Z,8.40
2023-03-25T03:25:32.035Z,8.30
2023-03-25T03:28:07.041Z,8.40
2023-03-25T03:30:44.089Z,8.40
2023-03-25T03:33:17.446Z,8.40
2023-03-25T03:35:51.844Z,8.50
2023-03-25T03:38:23.994Z,8.50
2023-03-25T03:40:58.137Z,8.40
2023-03-25T03:43:32.191Z,8.50
2023-03-25T03:46:03.323Z,8.40
2023-03-25T03:48:38.653Z,8.40
2023-03-25T03:51:10.075Z,8.40
2023-03-25T03:53:41.670Z,8.40
2023-03-25T03:56:14.187Z,8.40
2023-03-25T03:58:44.874Z,8.40
2023-03-25T04:01:17.874Z,8.40
2023-03-25T04:03:52.142Z,8.30
2023-03-25T04:06:25.502Z,8.30
2023-03-25T04:08:59.858Z,8.30
2023-03-25T04:11:36.962Z,8.20
2023-03-25T04:14:06.454Z,8.20
2023-03-25T04:16:37.550Z,8.20
2023-03-25T04:19:06.859Z,8.20
2023-03-25T04:21:35.137Z,8.30
2023-03-25T04:24:04.676Z,8.20
2023-03-25T04:26:37.582Z,8.20
2023-03-25T04:29:06.047Z,8.20
2023-03-25T04:31:34.387Z,8.20
2023-03-25T04:34:04.548Z,8.20
2023-03-25T04:36:33.567Z,8.30
2023-03-25T04:39:01.702Z,8.30
2023-03-25T04:41:32.261Z,8.30
2023-03-25T04:44:01.841Z,8.20
2023-03-25T04:46:29.914Z,8.20
2023-03-25T04:48:58.522Z,8.20
2023-03-25T04:51:26.953Z,8.20
2023-03-25T04:53:55.019Z,8.30
2023-03-25T04:56:23.455Z,8.30
2023-03-25T04:58:51.832Z,8.30
2023-03-25T05:01:30.858Z,8.20
2023-03-25T05:04:05.703Z,8.20
2023-03-25T05:06:34.681Z,8.20
2023-03-25T05:09:04.276Z,8.20
2023-03-25T05:11:34.055Z,8.20
2023-03-25T05:14:02.393Z,8.20
2023-03-25T05:16:31.951Z,8.20
2023-03-25T05:19:00.223Z,8.10
2023-03-25T05:21:28.462Z,8.10
2023-03-25T05:23:58.125Z,8.10
2023-03-25T05:26:26.231Z,8.10
2023-03-25T05:28:56.633Z,8.00
2023-03-25T05:31:24.655Z,8.00
2023-03-25T05:33:54.954Z,8.00
2023-03-25T05:36:25.055Z,8.00
2023-03-25T05:38:55.115Z,8.00
2023-03-25T05:41:33.252Z,8.00
2023-03-25T05:44:02.907Z,8.00
2023-03-25T05:46:31.214Z,8.00
2023-03-25T05:49:01.966Z,8.00
2023-03-25T05:51:34.209Z,8.00
2023-03-25T05:54:02.786Z,8.00
2023-03-25T05:56:31.308Z,8.00
2023-03-25T05:58:59.425Z,7.90
2023-03-25T06:01:33.323Z,7.90
2023-03-25T06:04:03.895Z,7.90
2023-03-25T06:06:33.959Z,8.00
2023-03-25T06:09:02.970Z,8.10
2023-03-25T06:11:31.172Z,8.20
2023-03-25T06:13:59.893Z,8.20
2023-03-25T06:16:30.371Z,8.20
2023-03-25T06:19:00.305Z,8.20
2023-03-25T06:21:32.911Z,8.30
2023-03-25T06:24:02.111Z,8.30
2023-03-25T06:26:30.657Z,8.30
2023-03-25T06:28:58.949Z,8.30
2023-03-25T06:31:27.711Z,8.30
2023-03-25T06:33:56.982Z,8.30
2023-03-25T06:36:25.463Z,8.40
2023-03-25T06:38:55.535Z,8.40
2023-03-25T06:41:25.162Z,8.40
2023-03-25T06:43:53.326Z,8.40
2023-03-25T06:46:21.429Z,8.40
2023-03-25T06:48:49.465Z,8.50
2023-03-25T06:51:17.524Z,8.60
2023-03-25T06:53:45.582Z,8.60
2023-03-25T06:56:16.398Z,8.60
2023-03-25T06:58:45.554Z,8.70
2023-03-25T07:01:13.592Z,8.70
2023-03-25T07:03:42.220Z,8.70
2023-03-25T07:06:16.694Z,9.00
2023-03-25T07:08:44.886Z,9.20
2023-03-25T07:11:15.615Z,9.40
2023-03-25T07:13:46.781Z,9.40
2023-03-25T07:16:14.867Z,9.20
2023-03-25T07:18:42.880Z,9.10
2023-03-25T07:21:11.219Z,9.10
2023-03-25T07:23:39.139Z,9.00
2023-03-25T07:26:07.803Z,9.10
2023-03-25T07:28:38.469Z,9.10
2023-03-25T07:31:08.651Z,9.10
2023-03-25T07:33:37.276Z,9.10
2023-03-25T07:36:07.196Z,9.30
2023-03-25T07:38:35.802Z,9.50
2023-03-25T07:41:06.803Z,9.50
2023-03-25T07:43:36.199Z,9.70
2023-03-25T07:46:04.804Z,9.90
2023-03-25T07:48:32.836Z,10.00
2023-03-25T07:51:01.188Z,10.10
2023-03-25T07:53:29.239Z,10.30
2023-03-25T07:55:57.249Z,10.30
2023-03-25T07:58:25.370Z,10.20
2023-03-25T08:00:58.022Z,10.10
2023-03-25T08:03:28.001Z,10.10
2023-03-25T08:05:57.077Z,9.90
2023-03-25T08:08:25.059Z,9.80
2023-03-25T08:10:53.695Z,9.80
2023-03-25T08:13:21.873Z,9.80
2023-03-25T08:15:50.452Z,9.70
2023-03-25T08:18:20.281Z,9.90
2023-03-25T08:20:50.207Z,10.00
2023-03-25T08:23:19.728Z,10.00
2023-03-25T08:25:50.820Z,10.00
2023-03-25T08:28:23.235Z,10.20
2023-03-25T08:30:54.941Z,10.20
2023-03-25T08:33:27.666Z,10.40
2023-03-25T08:35:58.450Z,10.50
2023-03-25T08:38:34.356Z,10.80
2023-03-25T08:41:03.211Z,10.70
2023-03-25T08:43:31.389Z,11.00
2023-03-25T08:46:00.809Z,10.80
2023-03-25T08:48:30.485Z,11.00
2023-03-25T08:50:58.515Z,11.10
2023-03-25T08:53:28.488Z,10.90
2023-03-25T08:55:58.103Z,11.00
2023-03-25T08:58:26.856Z,11.00
2023-03-25T09:00:56.761Z,10.90
2023-03-25T09:03:27.388Z,11.10
2023-03-25T09:05:56.987Z,11.00
2023-03-25T09:08:25.434Z,11.20
2023-03-25T09:10:58.661Z,11.30
2023-03-25T09:13:27.444Z,11.40
2023-03-25T09:15:55.782Z,11.60
2023-03-25T09:18:32.144Z,11.50
2023-03-25T09:21:02.192Z,11.30
2023-03-25T09:23:30.525Z,11.10
2023-03-25T09:26:02.705Z,10.90
2023-03-25T09:28:30.810Z,10.80
2023-03-25T09:30:59.219Z,10.70
2023-03-25T09:33:28.134Z,10.50
2023-03-25T09:35:57.827Z,10.20
2023-03-25T09:38:27.406Z,8.10
2023-03-25T09:40:55.436Z,7.60
2023-03-25T09:43:33.619Z,7.60
2023-03-25T09:46:02.718Z,7.50
2023-03-25T09:48:36.056Z,7.70
2023-03-25T09:51:06.523Z,8.00
2023-03-25T09:53:41.770Z,8.20
2023-03-25T09:56:16.277Z,8.00
2023-03-25T09:58:46.921Z,7.80
2023-03-25T10:01:57.095Z,7.90
2023-03-25T10:04:59.425Z,7.80
2023-03-25T10:07:46.915Z,7.70
2023-03-25T10:10:24.278Z,7.80
2023-03-25T10:13:02.363Z,8.10
2023-03-25T10:15:36.456Z,8.30
2023-03-25T10:18:20.425Z,8.60
2023-03-25T10:21:00.155Z,8.80
2023-03-25T10:23:37.605Z,9.10
2023-03-25T10:26:12.998Z,9.40
2023-03-25T10:28:47.513Z,9.30
2023-03-25T10:31:18.769Z,9.60
2023-03-25T10:33:52.861Z,10.10
2023-03-25T10:36:35.363Z,10.40
2023-03-25T10:39:05.534Z,10.30
2023-03-25T10:41:37.830Z,10.30
2023-03-25T10:44:10.253Z,10.20
2023-03-25T10:46:47.759Z,10.60
2023-03-25T10:49:18.447Z,10.90
2023-03-25T10:51:48.219Z,11.30
2023-03-25T10:54:18.765Z,11.50
2023-03-25T10:56:50.789Z,11.70
2023-03-25T10:59:24.379Z,11.60
2023-03-25T11:01:54.467Z,11.80
2023-03-25T11:04:25.010Z,11.50
2023-03-25T11:06:57.997Z,11.80
2023-03-25T11:09:30.241Z,11.90
2023-03-25T11:12:01.577Z,12.20
2023-03-25T11:14:31.356Z,12.20
2023-03-25T11:17:03.029Z,12.40
2023-03-25T11:19:37.453Z,12.40
2023-03-25T11:22:14.471Z,12.20
2023-03-25T11:24:45.505Z,12.40
2023-03-25T11:27:20.950Z,12.80
2023-03-25T11:29:54.084Z,12.70
2023-03-25T11:32:26.162Z,12.50
2023-03-25T11:34:54.975Z,12.40
2023-03-25T11:37:24.629Z,12.70
2023-03-25T11:39:55.494Z,12.70
2023-03-25T11:42:39.214Z,13.10
2023-03-25T11:45:09.084Z,13.30
2023-03-25T11:47:40.544Z,13.40
2023-03-25T11:50:19.845Z,13.10
2023-03-25T11:52:49.741Z,13.10
2023-03-25T11:55:21.785Z,13.20
2023-03-25T11:57:53.429Z,13.20
2023-03-25T12:00:29.530Z,13.50
2023-03-25T12:03:02.678Z,13.40
2023-03-25T12:05:31.773Z,13.40
2023-03-25T12:08:11.175Z,13.60
2023-03-25T12:10:50.076Z,13.50
2023-03-25T12:13:27.323Z,13.60
2023-03-25T12:16:06.874Z,13.50
2023-03-25T12:18:48.098Z,13.50
2023-03-25T12:21:27.289Z,13.60
2023-03-25T12:24:05.338Z,13.50
2023-03-25T12:26:41.489Z,13.70
2023-03-25T12:29:27.443Z,13.70
2023-03-25T12:32:08.879Z,13.70
2023-03-25T12:34:49.362Z,14.00
2023-03-25T12:37:27.201Z,14.20
2023-03-25T12:40:11.187Z,14.40
2023-03-25T12:42:48.423Z,14.50
2023-03-25T12:45:42.106Z,14.20
2023-03-25T12:48:22.406Z,14.20
2023-03-25T12:50:59.088Z,13.90
2023-03-25T12:53:40.818Z,13.90
2023-03-25T12:56:30.584Z,13.90
2023-03-25T12:59:16.725Z,14.10
2023-03-25T13:01:55.030Z,14.30
2023-03-25T13:04:38.227Z,14.20
2023-03-25T13:07:10.878Z,14.10
2023-03-25T13:09:47.066Z,13.50
2023-03-25T13:12:23.880Z,13.40
2023-03-25T13:14:58.953Z,12.90
2023-03-25T13:17:32.555Z,12.70
2023-03-25T13:20:04.131Z,12.90
2023-03-25T13:22:37.928Z,12.90
2023-03-25T13:25:09.839Z,13.00
2023-03-25T13:27:42.714Z,13.20
2023-03-25T13:30:18.803Z,13.60
2023-03-25T13:32:51.634Z,13.60
2023-03-25T13:35:26.507Z,13.90
2023-03-25T13:37:57.554Z,14.00
2023-03-25T13:40:30.225Z,14.20
2023-03-25T13:43:03.469Z,14.30
2023-03-25T13:45:35.370Z,14.00
2023-03-25T13:48:12.504Z,13.80
2023-03-25T13:50:41.019Z,13.60
2023-03-25T13:53:17.069Z,13.70
2023-03-25T13:55:51.215Z,13.80
2023-03-25T13:58:43.331Z,13.90
2023-03-25T14:01:33.131Z,13.70
2023-03-25T14:04:32.513Z,13.80
2023-03-25T14:07:23.157Z,14.00
2023-03-25T14:10:19.328Z,14.10
2023-03-25T14:12:52.137Z,14.20
2023-03-25T14:15:23.655Z,14.40
2023-03-25T14:17:54.307Z,14.30
2023-03-25T14:20:28.524Z,14.50
2023-03-25T14:23:04.440Z,14.50
2023-03-25T14:25:38.916Z,14.50
2023-03-25T14:28:21.275Z,14.60
2023-03-25T14:31:18.088Z,14.50
2023-03-25T14:34:14.739Z,14.30
2023-03-25T14:37:16.938Z,14.30
2023-03-25T14:39:45.611Z,14.30
2023-03-25T14:42:29.982Z,14.30
2023-03-25T14:45:42.223Z,14.40
2023-03-25T14:48:34.796Z,14.70
2023-03-25T14:51:23.704Z,14.60
2023-03-25T14:54:03.253Z,14.50
2023-03-25T14:56:36.322Z,14.40
2023-03-25T14:59:11.002Z,14.10
2023-03-25T15:01:41.150Z,13.90
2023-03-25T15:04:15.801Z,14.00
2023-03-25T15:06:49.554Z,14.10
2023-03-25T15:09:20.465Z,14.00
2023-03-25T15:11:57.194Z,13.90
2023-03-25T15:14:29.829Z,14.00
2023-03-25T15:17:11.143Z,14.00
2023-03-25T15:20:15.844Z,13.90
2023-03-25T15:22:44.189Z,13.90
2023-03-25T15:25:19.671Z,13.70
2023-03-25T15:28:05.819Z,13.70
2023-03-25T15:30:58.531Z,13.70
2023-03-25T15:33:43.494Z,13.70
2023-03-25T15:36:29.290Z,13.70
2023-03-25T15:39:15.426Z,13.70
2023-03-25T15:41:58.515Z,13.60
2023-03-25T15:44:50.311Z,13.50
2023-03-25T15:47:57.749Z,13.60
2023-03-25T15:50:36.554Z,13.50
2023-03-25T15:53:42.454Z,13.60
2023-03-25T15:56:14.675Z,13.60
2023-03-25T15:58:52.379Z,13.50
2023-03-25T16:01:25.974Z,13.50
2023-03-25T16:04:00.853Z,13.40
2023-03-25T16:06:29.958Z,13.50
2023-03-25T16:09:01.109Z,13.40
2023-03-25T16:11:29.899Z,13.50
2023-03-25T16:14:08.613Z,13.40
2023-03-25T16:16:41.357Z,13.30
2023-03-25T16:19:16.028Z,13.20
2023-03-25T16:21:44.399Z,13.10
2023-03-25T16:24:16.030Z,12.90
2023-03-25T16:26:46.026Z,12.80
2023-03-25T16:29:21.650Z,12.70
2023-03-25T16:31:56.449Z,12.80
2023-03-25T16:34:25.424Z,12.80
2023-03-25T16:36:55.080Z,12.90
2023-03-25T16:39:25.698Z,12.90
2023-03-25T16:42:02.097Z,13.00
2023-03-25T16:44:31.833Z,13.10
2023-03-25T16:47:02.054Z,12.90
2023-03-25T16:49:33.804Z,12.70
2023-03-25T16:52:04.032Z,12.60
2023-03-25T16:54:38.116Z,12.50
2023-03-25T16:57:09.134Z,12.50
2023-03-25T16:59:40.109Z,12.50
2023-03-25T17:02:31.676Z,12.60
2023-03-25T17:05:16.212Z,13.30
2023-03-25T17:07:45.042Z,13.70
2023-03-25T17:10:21.281Z,13.90
2023-03-25T17:12:55.400Z,12.80
2023-03-25T17:15:29.414Z,12.40
2023-03-25T17:18:01.428Z,12.20
2023-03-25T17:20:34.896Z,12.20
2023-03-25T17:23:25.396Z,12.00
2023-03-25T17:25:57.397Z,11.90
2023-03-25T17:28:29.827Z,11.80
2023-03-25T17:31:00.796Z,11.90
2023-03-25T17:33:35.906Z,11.80
2023-03-25T17:36:10.560Z,11.80
2023-03-25T17:38:44.886Z,11.90
2023-03-25T17:41:14.838Z,11.90
2023-03-25T17:43:45.577Z,11.80
2023-03-25T17:46:22.134Z,11.80
2023-03-25T17:48:50.878Z,11.70
2023-03-25T17:51:19.884Z,11.70
2023-03-25T17:53:48.450Z,11.70
2023-03-25T17:56:18.997Z,11.50
2023-03-25T17:58:46.964Z,11.60
2023-03-25T18:01:16.966Z,11.50
2023-03-25T18:03:44.969Z,11.30
2023-03-25T18:06:14.424Z,11.10
2023-03-25T18:08:42.335Z,11.00
2023-03-25T18:11:11.989Z,10.90
2023-03-25T18:13:45.797Z,10.90
2023-03-25T18:16:13.707Z,10.80
2023-03-25T18:18:43.335Z,10.70
2023-03-25T18:21:13.750Z,10.70
2023-03-25T18:23:44.597Z,10.50
2023-03-25T18:26:14.293Z,10.50
2023-03-25T18:28:43.147Z,10.50
2023-03-25T18:31:16.079Z,10.40
2023-03-25T18:33:51.831Z,10.20
2023-03-25T18:36:20.817Z,10.10
2023-03-25T18:38:57.172Z,10.10
2023-03-25T18:41:25.530Z,10.00
2023-03-25T18:43:53.940Z,10.00
2023-03-25T18:46:22.227Z,9.90
2023-03-25T18:48:52.298Z,9.90
2023-03-25T18:51:20.659Z,9.80
2023-03-25T18:53:49.971Z,9.80
2023-03-25T18:56:20.589Z,9.60
2023-03-25T18:58:51.049Z,9.50
2023-03-25T19:01:21.890Z,9.40
2023-03-25T19:04:02.757Z,9.50
2023-03-25T19:06:32.263Z,9.40
2023-03-25T19:09:01.066Z,9.30
2023-03-25T19:11:30.960Z,9.30
2023-03-25T19:13:59.319Z,9.30
2023-03-25T19:16:28.449Z,9.30
2023-03-25T19:18:57.770Z,9.20
2023-03-25T19:21:25.641Z,9.30
2023-03-25T19:23:54.276Z,9.30
2023-03-25T19:26:22.713Z,9.40
2023-03-25T19:29:04.670Z,9.40
2023-03-25T19:31:33.124Z,9.30
2023-03-25T19:34:06.431Z,9.20
2023-03-25T19:36:35.124Z,9.20
2023-03-25T19:39:05.750Z,9.10
2023-03-25T19:41:35.548Z,9.10
2023-03-25T19:44:07.350Z,9.20
2023-03-25T19:46:35.837Z,9.20
2023-03-25T19:49:05.383Z,9.20
2023-03-25T19:51:41.379Z,9.20
2023-03-25T19:54:13.645Z,9.20
2023-03-25T19:56:42.160Z,9.20
2023-03-25T19:59:21.561Z,9.10
2023-03-25T20:01:52.246Z,9.00
2023-03-25T20:04:23.308Z,8.80
2023-03-25T20:06:51.887Z,8.80
2023-03-25T20:09:20.077Z,8.80
2023-03-25T20:11:49.007Z,8.60
2023-03-25T20:14:17.538Z,8.60
2023-03-25T20:16:45.731Z,8.70
2023-03-25T20:19:14.461Z,8.70
2023-03-25T20:21:43.963Z,8.60
2023-03-25T20:24:12.468Z,8.70
2023-03-25T20:26:40.678Z,8.60
2023-03-25T20:29:09.643Z,8.70
2023-03-25T20:31:40.957Z,8.80
2023-03-25T20:34:13.397Z,8.70
2023-03-25T20:36:43.588Z,8.70
2023-03-25T20:39:11.979Z,8.70
2023-03-25T20:41:40.648Z,8.70
2023-03-25T20:44:09.090Z,8.80
2023-03-25T20:46:45.558Z,8.70
2023-03-25T20:49:15.489Z,8.70
2023-03-25T20:51:45.144Z,8.60
2023-03-25T20:54:15.293Z,8.60
2023-03-25T20:56:45.795Z,8.70
2023-03-25T20:59:16.960Z,8.60
2023-03-25T21:01:53.141Z,8.60
2023-03-25T21:04:21.525Z,8.60
2023-03-25T21:06:53.509Z,8.60
2023-03-25T21:09:21.582Z,8.60
2023-03-25T21:11:55.595Z,8.60
2023-03-25T21:14:23.750Z,8.60
2023-03-25T21:17:02.408Z,8.60
2023-03-25T21:19:30.672Z,8.60
2023-03-25T21:22:00.755Z,8.50
2023-03-25T21:24:28.856Z,8.50
2023-03-25T21:26:57.257Z,8.50
2023-03-25T21:29:25.850Z,8.40
2023-03-25T21:31:54.227Z,8.40
2023-03-25T21:34:23.182Z,8.30
2023-03-25T21:36:51.377Z,8.30
2023-03-25T21:39:21.117Z,8.30
2023-03-25T21:41:49.678Z,8.30
2023-03-25T21:44:17.787Z,8.30
2023-03-25T21:46:49.079Z,8.20
2023-03-25T21:49:24.352Z,8.20
2023-03-25T21:51:56.875Z,8.20
2023-03-25T21:54:26.901Z,8.20
2023-03-25T21:56:55.755Z,8.20
2023-03-25T21:59:26.989Z,8.20
2023-03-25T22:01:56.234Z,8.10
2023-03-25T22:04:24.990Z,8.20
2023-03-25T22:06:53.809Z,8.20
2023-03-25T22:09:22.098Z,8.10
2023-03-25T22:11:51.870Z,8.00
2023-03-25T22:14:20.695Z,8.00
2023-03-25T22:16:49.362Z,8.10
2023-03-25T22:19:17.783Z,8.00
2023-03-25T22:21:50.501Z,8.00
2023-03-25T22:24:18.841Z,7.90
2023-03-25T22:26:48.948Z,7.90
2023-03-25T22:29:18.605Z,7.90
2023-03-25T22:31:47.079Z,7.80
2023-03-25T22:34:16.627Z,7.80
2023-03-25T22:36:50.181Z,7.80
2023-03-25T22:39:23.147Z,7.70
2023-03-25T22:41:52.068Z,7.70
2023-03-25T22:44:21.550Z,7.60
2023-03-25T22:46:52.335Z,7.50
2023-03-25T22:49:21.815Z,7.50
2023-03-25T22:51:50.305Z,7.50
2023-03-25T22:54:18.966Z,7.50
2023-03-25T22:56:47.307Z,7.50
2023-03-25T22:59:16.322Z,7.40
2023-03-25T23:01:46.315Z,7.30
2023-03-25T23:04:14.682Z,7.20
2023-03-25T23:06:46.947Z,7.20
2023-03-25T23:09:41.347Z,7.20
2023-03-25T23:12:13.756Z,7.10
2023-03-25T23:14:43.875Z,7.10
2023-03-25T23:17:13.702Z,7.10
2023-03-25T23:19:42.275Z,7.00
2023-03-25T23:22:10.515Z,7.00
2023-03-25T23:24:39.264Z,7.00
2023-03-25T23:27:08.998Z,7.10
2023-03-25T23:29:37.392Z,7.20
2023-03-25T23:32:07.136Z,7.20
2023-03-25T23:34:38.363Z,7.20
2023-03-25T23:37:09.578Z,7.30
2023-03-25T23:39:40.575Z,7.30
2023-03-25T23:42:09.515Z,7.20
2023-03-25T23:44:37.781Z,7.10
2023-03-25T23:47:06.367Z,7.10
2023-03-25T23:49:38.295Z,7.10
2023-03-25T23:52:11.085Z,7.00
2023-03-25T23:54:40.568Z,7.00
2023-03-25T23:57:08.961Z,7.00
2023-03-25T23:59:37.369Z,7.00
